EW7831 Norefjell NO current weather conditions

sailwx.info

Wind from 215 at 4 knots gusting 6

Air temperature 13.3° C
Dewpoint 11.7° C

Last reported at 2020-Aug-14 00:05 UTC.
Time now 2020-Aug-14 00:22 UTC

Location: N 60°20' E 009°29'.
View on Google Maps.

See reports from other nearby stations

  
Tides and Currents Weather Stations Pressure Air Temp Water Temp Dewpoint Dewpoint Depression Visibility Wind Speed Wind Dir Waves Ship Positions
date/time (UTC)wind fromknots sea level pressurealtimeterstation pressurevisibilityair tempwater tempwave heightnotes
2020-Aug-14 00:05 215 4 gusting 6 13.3
2020-Aug-13 23:10 223 5 gusting 6 13.3
2020-Aug-13 23:05 226 5 gusting 6 13.3
2020-Aug-13 23:00 223 5 gusting 6 13.3
2020-Aug-13 22:55 226 5 gusting 6 13.3
2020-Aug-13 22:50 242 4 gusting 6 12.8
2020-Aug-13 22:45 256 4 gusting 6 12.8
2020-Aug-13 22:40 262 2 gusting 6 12.8
2020-Aug-13 22:35 266 2 gusting 5 12.8
2020-Aug-13 22:30 249 2 gusting 5 13.3
2020-Aug-13 22:25 232 1 gusting 5 13.3
2020-Aug-13 22:20 238 1 gusting 5 13.3
2020-Aug-13 22:15 249 1 gusting 4 13.3
2020-Aug-13 22:10 248 0 gusting 4 13.3
2020-Aug-13 22:05 241 0 gusting 2 13.3
2020-Aug-13 22:00 242 0 gusting 4 13.3
2020-Aug-13 21:55 246 1 gusting 4 12.8
2020-Aug-13 21:50 248 0 gusting 4 12.8
2020-Aug-13 21:45 218 1 gusting 5 12.8
2020-Aug-13 21:40 203 4 gusting 6 12.8
2020-Aug-13 21:35 200 2 gusting 6 13.3
2020-Aug-13 21:30 193 2 gusting 6 13.3
2020-Aug-13 21:25 198 5 gusting 6 12.8
2020-Aug-13 21:20 205 5 gusting 6 12.8
2020-Aug-13 21:15 219 4 gusting 6 12.8
2020-Aug-13 21:10 231 2 gusting 6 12.8
2020-Aug-13 21:05 242 1 gusting 5 13.3
2020-Aug-13 21:00 244 1 gusting 4 13.3
2020-Aug-13 20:55 245 2 gusting 4 13.3
2020-Aug-13 20:50 250 1 gusting 4 12.8
2020-Aug-13 20:45 254 0 gusting 2 13.3
2020-Aug-13 20:40 245 0 gusting 2 13.3
2020-Aug-13 20:35 226 2 gusting 5 13.3
2020-Aug-13 20:30 215 4 gusting 5 13.3
2020-Aug-13 20:25 211 4 gusting 6 12.8
2020-Aug-13 20:20 242 2 gusting 6 12.8
2020-Aug-13 20:15 219 1 gusting 5 12.8
2020-Aug-13 20:10 184 0 gusting 2 12.8
2020-Aug-13 20:05 184 0 gusting 2 12.8
2020-Aug-13 20:00 184 0 gusting 2 12.8
2020-Aug-13 19:55 184 13.3
2020-Aug-13 19:50 184 1 gusting 5 13.3
2020-Aug-13 19:45 190 2 gusting 6 13.3
2020-Aug-13 19:40 203 2 gusting 6 13.3
2020-Aug-13 19:35 215 1 gusting 4 13.3
2020-Aug-13 19:30 206 1 gusting 4 13.3
2020-Aug-13 19:25 189 0 gusting 2 13.3
2020-Aug-13 19:20 195 0 gusting 5 13.3
2020-Aug-13 19:15 216 1 gusting 5 13.3
2020-Aug-13 19:10 314 1 gusting 5 13.3
2020-Aug-13 19:05 318 4 gusting 11 13.3
2020-Aug-13 19:00 313 4 gusting 11 13.3
2020-Aug-13 18:55 353 4 gusting 11 13.3
2020-Aug-13 18:50 003 2 gusting 11 13.3
2020-Aug-13 18:45 308 1 gusting 5 13.3
2020-Aug-13 18:40 132 2 gusting 6 13.3
2020-Aug-13 18:35 157 1 gusting 6 13.3
2020-Aug-13 18:30 184 1 gusting 5 13.3
2020-Aug-13 18:25 335 2 gusting 8 13.3
2020-Aug-13 18:20 347 1 gusting 8 13.3
2020-Aug-13 18:15 087 1 gusting 6 13.3
2020-Aug-13 18:10 082 2 gusting 6 13.3
2020-Aug-13 18:05 334 5 gusting 13 13.9
2020-Aug-13 18:00 355 7 gusting 13 13.9
2020-Aug-13 17:55 358 8 gusting 13 13.9
2020-Aug-13 17:50 355 8 gusting 13 13.3
2020-Aug-13 17:45 345 7 gusting 13 13.3
2020-Aug-13 17:40 286 6 gusting 11 13.3
2020-Aug-13 17:35 339 6 gusting 14 13.3
2020-Aug-13 17:30 346 6 gusting 14 13.3
2020-Aug-13 17:25 314 4 gusting 13 12.8
2020-Aug-13 17:20 039 4 gusting 10 12.8
2020-Aug-13 17:15 072 6 gusting 12 12.8
2020-Aug-13 17:10 079 5 gusting 12 12.8
2020-Aug-13 17:05 003 4 gusting 10 12.8
2020-Aug-13 17:00 004 4 gusting 10 12.8
2020-Aug-13 16:55 337 2 gusting 10 12.8
2020-Aug-13 16:50 326 5 gusting 12 12.8
2020-Aug-13 16:45 003 7 gusting 13 13.3
2020-Aug-13 16:35 004 8 gusting 16 13.3
2020-Aug-13 16:30 007 6 gusting 16 13.3
2020-Aug-13 16:25 008 6 gusting 16 12.2
2020-Aug-13 16:20 001 7 gusting 13 12.2
2020-Aug-13 16:15 350 7 gusting 13 11.7
2020-Aug-13 16:10 345 8 gusting 13 11.1
2020-Aug-13 16:05 255 7 gusting 12 11.7
2020-Aug-13 16:00 324 8 gusting 14 11.7
2020-Aug-13 15:55 340 11 gusting 16 11.7
2020-Aug-13 15:50 345 12 gusting 17 11.7
2020-Aug-13 15:45 326 8 gusting 17 12.8
2020-Aug-13 15:40 338 5 gusting 16 13.9
2020-Aug-13 15:35 065 5 gusting 7 14.4
2020-Aug-13 15:30 067 5 gusting 7 14.4
2020-Aug-13 15:25 061 4 gusting 6 14.4
2020-Aug-13 15:20 056 4 gusting 6 14.4
2020-Aug-13 15:15 054 2 gusting 6 14.4
2020-Aug-13 15:10 057 1 gusting 5 15.0
2020-Aug-13 15:05 064 4 gusting 8 15.0
2020-Aug-13 14:55 105 4 gusting 6 16.7
2020-Aug-13 14:50 128 5 gusting 16 17.2
2020-Aug-13 14:45 111 6 gusting 16 17.8
2020-Aug-13 14:40 110 6 gusting 11 18.9
2020-Aug-13 14:35 128 6 gusting 8 19.4
2020-Aug-13 14:30 119 6 gusting 10 19.4
2020-Aug-13 14:25 102 6 gusting 10 19.4
2020-Aug-13 14:20 121 6 gusting 8 19.4
2020-Aug-13 14:15 138 5 gusting 7 19.4
2020-Aug-13 14:10 139 4 gusting 6 19.4
2020-Aug-13 14:05 129 4 gusting 6 19.4
2020-Aug-13 14:00 121 5 gusting 8 19.4
2020-Aug-13 13:55 122 5 gusting 10 18.9
2020-Aug-13 13:50 124 5 gusting 10 18.9
2020-Aug-13 13:45 096 6 gusting 10 18.9
2020-Aug-13 13:40 084 5 gusting 8 18.3
2020-Aug-13 13:35 083 5 gusting 8 18.9
2020-Aug-13 13:30 082 4 gusting 7 18.9
2020-Aug-13 13:25 082 4 gusting 8 18.9
2020-Aug-13 13:20 091 2 gusting 8 18.3
2020-Aug-13 13:15 120 2 gusting 5 18.3
2020-Aug-13 13:10 147 2 gusting 6 18.3
2020-Aug-13 13:05 131 4 gusting 6 18.3
2020-Aug-13 13:00 098 2 gusting 6 18.3
2020-Aug-13 12:55 086 1 gusting 4 18.3
2020-Aug-13 12:50 086 1 gusting 4 17.8
2020-Aug-13 12:45 087 1 gusting 4 17.8
2020-Aug-13 12:40 086 1 gusting 2 17.2
2020-Aug-13 12:35 086 2 gusting 4 17.2
2020-Aug-13 12:30 086 2 gusting 5 17.2
2020-Aug-13 12:25 086 2 gusting 5 17.2
2020-Aug-13 12:20 086 1 gusting 5 17.2
2020-Aug-13 12:15 087 0 gusting 2 17.2
2020-Aug-13 12:10 086 1 gusting 5 17.2
2020-Aug-13 12:05 086 2 gusting 5 17.2
2020-Aug-13 12:00 087 2 gusting 5 17.2
2020-Aug-13 11:55 081 4 gusting 7 17.8
2020-Aug-13 11:50 067 5 gusting 8 17.8
2020-Aug-13 11:45 068 6 gusting 8 18.3
2020-Aug-13 11:40 075 5 gusting 8 18.3
2020-Aug-13 11:35 077 5 gusting 8 17.8
2020-Aug-13 11:25 079 5 gusting 6 17.8
2020-Aug-13 11:20 075 5 gusting 6 17.8
2020-Aug-13 11:15 076 4 gusting 6 17.8
2020-Aug-13 11:10 080 5 gusting 6 17.8
2020-Aug-13 11:05 080 5 gusting 6 17.8
2020-Aug-13 11:00 071 5 gusting 6 17.8
2020-Aug-13 10:55 064 5 gusting 6 17.8
2020-Aug-13 10:50 064 5 gusting 7 17.8
2020-Aug-13 10:45 068 4 gusting 7 17.8
2020-Aug-13 10:40 070 4 gusting 6 17.8
2020-Aug-13 10:35 069 5 gusting 6 17.2
2020-Aug-13 10:30 067 5 gusting 6 17.2
2020-Aug-13 10:25 070 5 gusting 6 17.2
2020-Aug-13 10:20 066 4 gusting 6 17.2
2020-Aug-13 10:15 068 4 gusting 6 17.2
2020-Aug-13 10:10 077 5 gusting 6 16.7
2020-Aug-13 10:05 075 4 gusting 6 16.7
2020-Aug-13 10:00 074 4 gusting 6 16.7
2020-Aug-13 09:55 076 4 gusting 6 16.7
2020-Aug-13 09:50 076 4 gusting 6 16.7
2020-Aug-13 09:45 077 5 gusting 6 16.7
2020-Aug-13 09:40 074 5 gusting 6 16.7
2020-Aug-13 09:35 070 4 gusting 6 16.7
2020-Aug-13 09:30 078 4 gusting 6 16.7
2020-Aug-13 09:25 077 4 gusting 6 16.7
2020-Aug-13 09:20 066 2 gusting 6 16.7
2020-Aug-13 09:15 068 2 gusting 5 16.7
2020-Aug-13 09:10 068 2 gusting 6 16.7
2020-Aug-13 09:05 061 4 gusting 6 16.7
2020-Aug-13 09:00 061 4 gusting 6 16.7
2020-Aug-13 08:55 066 4 gusting 6 16.7
2020-Aug-13 08:50 066 4 gusting 6 16.1
2020-Aug-13 08:45 064 2 gusting 5 16.1
2020-Aug-13 08:40 063 2 gusting 5 16.1
2020-Aug-13 08:35 064 4 gusting 6 16.1
2020-Aug-13 08:30 065 4 gusting 6 16.1
2020-Aug-13 08:25 072 5 gusting 7 16.1
2020-Aug-13 08:20 074 5 gusting 7 16.1
2020-Aug-13 08:10 067 5 gusting 7 16.7
2020-Aug-13 08:05 062 4 gusting 6 16.7
2020-Aug-13 08:00 057 2 gusting 6 16.7
2020-Aug-13 07:55 051 2 gusting 6 16.7
2020-Aug-13 07:50 060 2 gusting 6 16.7
2020-Aug-13 07:45 067 4 gusting 6 16.7
2020-Aug-13 07:40 069 4 gusting 6 16.7
2020-Aug-13 07:35 070 4 gusting 6 16.7
2020-Aug-13 07:30 066 2 gusting 5 16.7
2020-Aug-13 07:25 066 2 gusting 5 16.7
2020-Aug-13 07:20 065 2 gusting 5 16.7
2020-Aug-13 07:15 063 2 gusting 5 16.7
2020-Aug-13 07:10 061 2 gusting 5 16.7
2020-Aug-13 07:05 062 4 gusting 5 16.7
2020-Aug-13 07:00 066 2 gusting 5 16.7
2020-Aug-13 06:55 073 2 gusting 4 16.7
2020-Aug-13 06:50 076 4 gusting 6 16.1
2020-Aug-13 06:45 074 4 gusting 6 16.1
2020-Aug-13 06:40 067 4 gusting 6 16.7
2020-Aug-13 06:35 061 2 gusting 6 16.7
2020-Aug-13 06:25 067 1 gusting 6 16.7
2020-Aug-13 06:20 089 0 gusting 4 16.1
2020-Aug-13 06:15 089 1 gusting 5 16.1
2020-Aug-13 06:10 092 2 gusting 5 16.1
2020-Aug-13 06:05 138 1 gusting 5 15.6
2020-Aug-13 06:00 170 0 gusting 5 15.6
2020-Aug-13 05:55 237 15.6
2020-Aug-13 05:50 237 15.6
2020-Aug-13 05:45 237 0 gusting 2 15.0
2020-Aug-13 05:40 237 0 gusting 2 15.0
2020-Aug-13 05:35 236 0 gusting 4 14.4
2020-Aug-13 05:30 249 2 gusting 5 14.4
2020-Aug-13 05:25 257 2 gusting 5 13.9
2020-Aug-13 05:20 271 2 gusting 4 13.3
2020-Aug-13 05:15 256 2 gusting 4 13.3
2020-Aug-13 05:10 237 1 gusting 4 13.3
2020-Aug-13 05:05 190 0 gusting 2 13.9
2020-Aug-13 05:00 170 1 gusting 2 13.9
2020-Aug-13 04:55 170 1 gusting 2 14.4
2020-Aug-13 04:50 171 0 gusting 2 14.4
2020-Aug-13 04:45 181 0 gusting 2 14.4
2020-Aug-13 04:40 266 14.4
2020-Aug-13 04:35 266 0 gusting 2 15.0
2020-Aug-13 04:30 266 0 gusting 2 14.4
2020-Aug-13 04:25 266 0 gusting 1 14.4
2020-Aug-13 04:20 266 1 gusting 2 14.4
2020-Aug-13 04:15 266 1 gusting 2 13.9
2020-Aug-13 04:05 267 2 gusting 4 13.3
2020-Aug-13 04:00 268 2 gusting 4 12.8
2020-Aug-13 03:55 270 2 gusting 4 12.8
2020-Aug-13 03:45 249 2 gusting 5 13.3
2020-Aug-13 03:40 245 2 gusting 5 13.9
2020-Aug-13 03:35 239 2 gusting 6 13.3
2020-Aug-13 03:30 255 2 gusting 6 12.8
2020-Aug-13 03:25 269 4 gusting 5 12.2
2020-Aug-13 03:20 267 2 gusting 5 12.2
2020-Aug-13 03:15 269 2 gusting 4 12.8
2020-Aug-13 03:10 268 2 gusting 4 12.8
2020-Aug-13 03:05 267 2 gusting 4 12.8
2020-Aug-13 03:00 266 2 gusting 4 12.8
2020-Aug-13 02:55 267 4 gusting 4 12.8
2020-Aug-13 02:50 268 1 gusting 4 12.8
2020-Aug-13 02:45 270 0 gusting 2 12.8
2020-Aug-13 02:40 270 0 gusting 2 12.8
2020-Aug-13 02:35 269 1 gusting 4 12.8
2020-Aug-13 02:30 269 2 gusting 5 12.8
2020-Aug-13 02:25 262 4 gusting 5 12.8
2020-Aug-13 02:20 257 2 gusting 5 12.8
2020-Aug-13 02:15 258 4 gusting 5 12.8
2020-Aug-13 02:10 262 4 gusting 5 12.8
2020-Aug-13 02:05 264 2 gusting 5 13.3
2020-Aug-13 02:00 264 2 gusting 4 13.3
2020-Aug-13 01:55 264 1 gusting 4 13.3
2020-Aug-13 01:50 264 0 gusting 4 13.3
2020-Aug-13 01:45 264 1 gusting 4 13.3
2020-Aug-13 01:40 264 2 gusting 4 12.8
2020-Aug-13 01:35 260 4 gusting 5 12.8
2020-Aug-13 01:30 261 4 gusting 5 13.3
2020-Aug-13 01:25 264 1 gusting 5 13.9
2020-Aug-13 01:20 261 0 gusting 4 13.9
2020-Aug-13 01:15 259 1 gusting 5 13.3
2020-Aug-13 01:10 254 1 gusting 5 13.3
2020-Aug-13 01:05 232 1 gusting 4 14.4
2020-Aug-13 01:00 232 2 gusting 5 14.4
2020-Aug-13 00:55 231 4 gusting 6 15.0
2020-Aug-13 00:50 226 5 gusting 6 15.6
2020-Aug-13 00:45 234 5 gusting 6 15.0
2020-Aug-13 00:40 250 5 gusting 6 14.4
2020-Aug-13 00:35 238 5 gusting 6 15.0
2020-Aug-13 00:30 195 5 gusting 6 15.6
2020-Aug-13 00:25 191 6 gusting 8 15.6
2020-Aug-13 00:20 192 5 gusting 8 15.0
2020-Aug-13 00:15 206 5 gusting 6 14.4
2020-Aug-13 00:10 224 5 gusting 6 14.4
2020-Aug-13 00:05 228 5 gusting 6 13.9
2020-Aug-13 00:00 244 4 gusting 6 13.3
2020-Aug-12 23:55 261 4 gusting 6 13.3
2020-Aug-12 23:45 267 4 gusting 5 13.9
2020-Aug-12 23:35 242 4 gusting 6 15.0
2020-Aug-12 23:25 226 5 gusting 6 15.0
2020-Aug-12 23:20 201 5 gusting 6 15.6
2020-Aug-12 23:15 185 4 gusting 6 15.6
2020-Aug-12 23:10 189 5 gusting 6 15.6
2020-Aug-12 23:05 191 5 gusting 6 15.6
2020-Aug-12 23:00 201 5 gusting 6 15.6
2020-Aug-12 22:55 211 4 gusting 6 15.6
2020-Aug-12 22:50 220 4 gusting 5 15.6
2020-Aug-12 22:45 222 4 gusting 6 15.6
2020-Aug-12 22:40 219 5 gusting 6 15.0
2020-Aug-12 22:35 218 4 gusting 6 14.4
2020-Aug-12 22:30 242 4 gusting 6 13.9
2020-Aug-12 22:25 265 5 gusting 6 13.3
2020-Aug-12 22:20 268 5 gusting 6 13.3
2020-Aug-12 22:15 259 4 gusting 6 13.9
2020-Aug-12 22:10 228 4 gusting 5 14.4
2020-Aug-12 22:05 206 4 gusting 6 15.0
2020-Aug-12 22:00 194 5 gusting 6 15.6
2020-Aug-12 21:55 195 6 gusting 8 15.6
2020-Aug-12 21:50 193 6 gusting 10 15.6
2020-Aug-12 21:45 189 6 gusting 10 15.6
2020-Aug-12 21:40 189 5 gusting 8 15.6
2020-Aug-12 21:35 193 4 gusting 6 15.6
2020-Aug-12 21:30 194 4 gusting 5 15.6
2020-Aug-12 21:25 199 4 gusting 5 15.0
2020-Aug-12 21:20 209 2 gusting 5 15.0
2020-Aug-12 21:15 212 2 gusting 4 15.0
2020-Aug-12 21:10 209 2 gusting 5 15.0
2020-Aug-12 21:05 213 4 gusting 6 15.0
2020-Aug-12 21:00 218 2 gusting 6 15.0
2020-Aug-12 20:55 213 2 gusting 5 15.6
2020-Aug-12 20:50 200 4 gusting 5 15.6
2020-Aug-12 20:45 202 4 gusting 5 15.6
2020-Aug-12 20:40 206 4 gusting 6 15.0
2020-Aug-12 20:35 206 5 gusting 6 15.0
2020-Aug-12 20:30 211 4 gusting 6 15.0
2020-Aug-12 20:25 199 2 gusting 6 15.0
2020-Aug-12 20:20 105 2 gusting 5 15.0
2020-Aug-12 20:15 079 1 gusting 4 15.0
2020-Aug-12 20:10 076 15.6
2020-Aug-12 20:05 076 0 gusting 4 16.1
2020-Aug-12 20:00 076 1 gusting 4 16.1
2020-Aug-12 19:55 076 0 gusting 2 16.7
2020-Aug-12 19:50 070 0 gusting 2 16.7
2020-Aug-12 19:45 063 1 gusting 2 16.7
2020-Aug-12 19:40 054 0 gusting 2 16.7
2020-Aug-12 19:35 047 0 gusting 2 16.7
2020-Aug-12 19:30 047 0 gusting 2 16.7
2020-Aug-12 19:25 16.7
2020-Aug-12 19:20 17.2
2020-Aug-12 19:15 17.2
2020-Aug-12 19:10 17.2
2020-Aug-12 19:05 17.2
2020-Aug-12 09:49 077 4 gusting 6 20.0
2020-Aug-12 09:44 078 4 gusting 6 19.4
2020-Aug-12 09:39 074 2 gusting 6 19.4
2020-Aug-12 09:34 071 4 gusting 6 19.4
2020-Aug-12 09:29 071 2 gusting 6 19.4
2020-Aug-12 09:24 079 2 gusting 6 19.4
2020-Aug-12 09:19 073 2 gusting 6 19.4
2020-Aug-12 09:14 067 2 gusting 6 19.4
2020-Aug-12 09:04 050 1 gusting 5 19.4
2020-Aug-12 08:59 064 2 gusting 5 19.4
2020-Aug-12 08:54 085 2 gusting 5 18.9
2020-Aug-12 08:49 079 4 gusting 6 18.9
2020-Aug-12 08:44 069 2 gusting 6 19.4
2020-Aug-12 08:39 054 2 gusting 5 19.4
2020-Aug-12 08:34 041 4 gusting 6 19.4
2020-Aug-12 08:29 038 4 gusting 6 19.4
2020-Aug-12 08:24 024 2 gusting 6 19.4
2020-Aug-12 08:19 334 4 gusting 7 18.9
2020-Aug-12 08:14 336 5 gusting 8 18.9
2020-Aug-12 08:09 345 5 gusting 8 18.9
2020-Aug-12 08:04 344 4 gusting 6 18.9
2020-Aug-12 07:59 343 4 gusting 7 18.9
2020-Aug-12 07:54 024 2 gusting 7 18.9
2020-Aug-12 07:49 054 2 gusting 6 18.9
2020-Aug-12 07:44 078 1 gusting 5 18.9
2020-Aug-12 07:39 085 0 gusting 4 18.9
2020-Aug-12 07:34 084 1 gusting 5 18.9
2020-Aug-12 07:29 078 2 gusting 6 18.3
2020-Aug-12 07:24 072 2 gusting 6 18.9
2020-Aug-12 07:19 067 0 gusting 4 18.9
2020-Aug-12 07:14 062 1 gusting 4 18.9
2020-Aug-12 07:09 042 0 gusting 4 18.9
2020-Aug-12 07:04 305 0 gusting 2 18.3
2020-Aug-12 06:59 301 1 gusting 4 18.3
2020-Aug-12 06:54 299 1 gusting 4 18.3
2020-Aug-12 06:49 298 0 gusting 4 18.3
2020-Aug-12 06:44 298 0 gusting 4 18.3
2020-Aug-12 06:39 289 1 gusting 4 17.8
2020-Aug-12 06:34 267 1 gusting 4 17.8
2020-Aug-12 06:29 244 0 gusting 2 17.8
2020-Aug-12 06:24 244 17.8
2020-Aug-12 06:19 243 17.2
2020-Aug-12 06:14 243 16.7
2020-Aug-12 06:09 243 16.1
2020-Aug-12 06:04 243 0 gusting 2 16.1
2020-Aug-12 05:59 243 1 gusting 4 15.6
2020-Aug-12 05:54 243 1 gusting 4 15.6
2020-Aug-12 05:49 245 2 gusting 5 15.6
2020-Aug-12 05:44 250 2 gusting 5 15.0
2020-Aug-12 05:39 262 2 gusting 5 15.0
2020-Aug-12 05:34 268 2 gusting 5 15.0
2020-Aug-12 05:29 270 1 gusting 5 15.0
2020-Aug-12 05:24 270 1 gusting 4 15.0
2020-Aug-12 05:19 265 1 gusting 5 14.4
2020-Aug-12 05:14 246 2 gusting 5 14.4
2020-Aug-12 05:09 226 2 gusting 5 14.4
2020-Aug-12 05:04 220 4 gusting 5 13.9
2020-Aug-12 04:59 225 2 gusting 5 13.9
2020-Aug-12 04:54 236 2 gusting 4 13.9
2020-Aug-12 04:49 234 1 gusting 4 13.9
2020-Aug-12 04:44 234 1 gusting 4 13.3
2020-Aug-12 04:39 233 1 gusting 2 13.3
2020-Aug-12 04:34 247 2 gusting 4 12.8
2020-Aug-12 04:29 260 2 gusting 4 12.8
2020-Aug-12 04:24 266 2 gusting 4 12.2
2020-Aug-12 04:19 266 2 gusting 4 11.7
2020-Aug-12 04:14 266 2 gusting 4 11.7
2020-Aug-12 04:09 265 2 gusting 4 11.7
2020-Aug-12 04:04 237 2 gusting 6 12.2
2020-Aug-12 03:59 209 4 gusting 6 12.8
2020-Aug-12 03:54 209 5 gusting 6 12.8
2020-Aug-12 03:49 220 4 gusting 6 12.2
2020-Aug-12 03:44 236 2 gusting 5 12.2
2020-Aug-12 03:39 242 2 gusting 5 12.8
2020-Aug-12 03:34 253 2 gusting 5 12.8
2020-Aug-12 03:29 265 1 gusting 5 12.8
2020-Aug-12 03:24 255 0 gusting 2 12.2
2020-Aug-12 03:19 254 0 gusting 2 12.2
2020-Aug-12 03:14 240 1 gusting 4 12.2
2020-Aug-12 03:09 230 1 gusting 4 12.2
2020-Aug-12 03:04 225 2 gusting 5 12.2
2020-Aug-12 02:59 226 4 gusting 6 12.2
2020-Aug-12 02:54 222 4 gusting 6 12.2
2020-Aug-12 02:49 218 4 gusting 5 12.2
2020-Aug-12 02:44 222 2 gusting 5 12.2
2020-Aug-12 02:39 223 4 gusting 5 12.2
2020-Aug-12 02:34 220 4 gusting 5 12.8
2020-Aug-12 02:29 219 4 gusting 6 12.8
2020-Aug-12 02:24 221 4 gusting 6 12.2
2020-Aug-12 02:19 227 4 gusting 5 11.7
2020-Aug-12 02:14 245 4 gusting 5 11.7
2020-Aug-12 02:09 240 4 gusting 5 11.7
2020-Aug-12 02:04 231 2 gusting 5 11.7
2020-Aug-12 01:59 231 2 gusting 6 11.7
2020-Aug-12 01:54 240 4 gusting 6 12.2
2020-Aug-12 01:49 243 4 gusting 6 12.2
2020-Aug-12 01:44 234 4 gusting 6 12.8
2020-Aug-12 01:39 225 4 gusting 6 12.8
2020-Aug-12 01:34 224 4 gusting 6 13.3
2020-Aug-12 01:29 220 5 gusting 6 12.8
2020-Aug-12 01:24 213 4 gusting 6 12.8
2020-Aug-12 01:19 214 4 gusting 6 12.2
2020-Aug-12 01:14 215 4 gusting 6 12.2
2020-Aug-12 01:09 218 1 gusting 6 12.2
2020-Aug-12 01:04 218 1 gusting 5 12.2
2020-Aug-12 00:59 213 4 gusting 6 12.8
2020-Aug-12 00:54 219 2 gusting 6 12.2
2020-Aug-12 00:49 259 2 gusting 5 12.2
2020-Aug-12 00:44 270 2 gusting 4 12.2
2020-Aug-12 00:39 263 4 gusting 6 12.2
2020-Aug-12 00:34 224 5 gusting 6 12.2
2020-Aug-12 00:29 223 6 gusting 6 12.8
2020-Aug-12 00:24 232 5 gusting 6 12.8
2020-Aug-12 00:19 232 5 gusting 6 12.8
2020-Aug-12 00:14 245 5 gusting 6 12.2
2020-Aug-12 00:09 252 4 gusting 6 12.2
2020-Aug-12 00:04 244 2 gusting 6 12.2